createdAt,value
2019-01-25T00:01:34.101Z,29.03
2019-01-25T00:04:14.547Z,27.57
2019-01-25T00:06:55.817Z,29.10
2019-01-25T00:09:36.972Z,27.27
2019-01-25T00:12:18.464Z,27.07
2019-01-25T00:15:00.073Z,28.40
2019-01-25T00:17:41.740Z,27.73
2019-01-25T00:20:22.819Z,31.60
2019-01-25T00:23:03.757Z,27.43
2019-01-25T00:25:45.231Z,27.60
2019-01-25T00:28:26.225Z,27.47
2019-01-25T00:31:06.854Z,30.30
2019-01-25T00:33:47.711Z,30.57
2019-01-25T00:36:28.307Z,29.03
2019-01-25T00:39:09.179Z,28.07
2019-01-25T00:41:50.278Z,31.30
2019-01-25T00:44:30.974Z,29.60
2019-01-25T00:47:12.084Z,28.10
2019-01-25T00:49:53.289Z,29.13
2019-01-25T00:52:34.695Z,29.67
2019-01-25T00:55:15.495Z,28.23
2019-01-25T00:57:56.395Z,30.80
2019-01-25T01:00:37.306Z,30.50
2019-01-25T01:03:18.238Z,29.97
2019-01-25T01:05:59.050Z,28.07
2019-01-25T01:08:40.255Z,27.90
2019-01-25T01:11:21.059Z,28.63
2019-01-25T01:14:01.624Z,29.50
2019-01-25T01:16:42.346Z,29.30
2019-01-25T01:19:23.923Z,30.57
2019-01-25T01:22:05.531Z,27.83
2019-01-25T01:24:46.935Z,29.27
2019-01-25T01:27:27.503Z,30.10
2019-01-25T01:30:08.855Z,30.70
2019-01-25T01:32:49.594Z,29.77
2019-01-25T01:35:30.703Z,30.20
2019-01-25T01:38:11.341Z,27.57
2019-01-25T01:40:52.159Z,29.53
2019-01-25T01:43:21.544Z,31.50
2019-01-25T01:46:09.766Z,29.70
2019-01-25T01:48:50.769Z,28.90
2019-01-25T01:51:31.583Z,29.27
2019-01-25T01:54:12.595Z,29.97
2019-01-25T01:56:53.343Z,29.60
2019-01-25T01:59:34.632Z,27.73
2019-01-25T02:02:15.708Z,29.60
2019-01-25T02:04:57.210Z,32.90
2019-01-25T02:07:38.264Z,27.77
2019-01-25T02:10:18.960Z,27.90
2019-01-25T02:12:59.971Z,27.83
2019-01-25T02:15:41.083Z,29.27
2019-01-25T02:18:20.412Z,29.43
2019-01-25T02:21:09.111Z,31.57
2019-01-25T02:27:06.286Z,29.70
2019-01-25T02:29:54.771Z,30.20
2019-01-25T02:32:42.984Z,30.47
2019-01-25T02:35:31.285Z,28.00
2019-01-25T02:38:19.479Z,28.33
2019-01-25T02:41:07.702Z,28.40
2019-01-25T02:43:37.083Z,26.20
2019-01-25T02:46:26.541Z,28.47
2019-01-25T02:49:07.315Z,29.47
2019-01-25T02:51:48.588Z,27.37
2019-01-25T02:54:29.337Z,28.37
2019-01-25T02:57:09.882Z,28.17
2019-01-25T02:59:50.393Z,27.63
2019-01-25T03:02:30.803Z,28.60
2019-01-25T03:05:11.396Z,28.77
2019-01-25T03:07:52.781Z,28.63
2019-01-25T03:10:34.858Z,27.47
2019-01-25T03:13:15.677Z,28.10
2019-01-25T03:15:56.286Z,26.97
2019-01-25T03:18:37.433Z,27.17
2019-01-25T03:21:17.945Z,28.67
2019-01-25T03:23:58.368Z,27.93
2019-01-25T03:26:39.182Z,28.37
2019-01-25T03:29:20.374Z,28.43
2019-01-25T03:32:01.756Z,27.60
2019-01-25T03:34:42.843Z,29.37
2019-01-25T03:37:11.988Z,26.80
2019-01-25T03:40:00.397Z,26.57
2019-01-25T03:42:48.638Z,27.80
2019-01-25T03:45:37.093Z,29.07
2019-01-25T03:48:06.812Z,26.87
2019-01-25T03:50:35.914Z,26.80
2019-01-25T03:53:05.066Z,28.00
2019-01-25T03:55:34.761Z,27.60
2019-01-25T03:58:03.978Z,27.27
2019-01-25T04:00:33.077Z,27.53
2019-01-25T04:03:21.552Z,27.70
2019-01-25T04:06:10.019Z,25.53
2019-01-25T04:08:58.259Z,27.73
2019-01-25T04:11:46.487Z,26.93
2019-01-25T04:14:35.004Z,27.23
2019-01-25T04:17:23.310Z,24.97
2019-01-25T04:20:03.911Z,27.30
2019-01-25T04:22:44.656Z,27.40
2019-01-25T04:25:25.444Z,27.50
2019-01-25T04:28:06.139Z,28.57
2019-01-25T04:30:46.970Z,26.13
2019-01-25T04:33:27.913Z,25.97
2019-01-25T04:36:08.897Z,27.33
2019-01-25T04:38:50.261Z,26.67
2019-01-25T04:41:31.164Z,26.63
2019-01-25T04:44:11.978Z,25.70
2019-01-25T04:46:52.667Z,26.40
2019-01-25T04:49:34.135Z,24.40
2019-01-25T04:52:15.175Z,25.87
2019-01-25T04:54:56.174Z,26.17
2019-01-25T04:57:37.774Z,26.10
2019-01-25T05:00:19.418Z,28.00
2019-01-25T05:03:01.147Z,27.10
2019-01-25T05:05:42.540Z,26.57
2019-01-25T05:08:23.978Z,26.37
2019-01-25T05:11:04.926Z,25.77
2019-01-25T05:13:46.399Z,27.03
2019-01-25T05:16:16.045Z,25.83
2019-01-25T05:19:04.554Z,26.73
2019-01-25T05:21:52.756Z,25.37
2019-01-25T05:24:40.995Z,26.83
2019-01-25T05:27:29.231Z,26.50
2019-01-25T05:30:17.932Z,28.47
2019-01-25T05:33:06.370Z,27.07
2019-01-25T05:35:54.821Z,29.03
2019-01-25T05:38:46.803Z,26.27
2019-01-25T05:41:35.000Z,29.00
2019-01-25T05:44:23.223Z,26.37
2019-01-25T05:47:11.884Z,25.97
2019-01-25T05:50:00.371Z,30.77
2019-01-25T05:52:48.883Z,30.17
2019-01-25T05:55:37.107Z,31.00
2019-01-25T05:58:25.623Z,36.83
2019-01-25T06:01:13.933Z,42.30
2019-01-25T06:04:02.168Z,46.00
2019-01-25T06:06:50.381Z,33.97
2019-01-25T06:09:38.618Z,30.67
2019-01-25T06:12:27.201Z,29.17
2019-01-25T06:15:15.674Z,32.13
2019-01-25T06:17:58.557Z,31.07
2019-01-25T06:20:39.652Z,30.10
2019-01-25T06:23:20.857Z,31.70
2019-01-25T06:26:01.652Z,30.00
2019-01-25T06:28:43.112Z,35.30
2019-01-25T06:31:24.408Z,36.23
2019-01-25T06:34:05.348Z,29.50
2019-01-25T06:36:46.770Z,27.77
2019-01-25T06:39:27.738Z,28.30
2019-01-25T06:42:08.736Z,29.00
2019-01-25T06:44:50.731Z,29.00
2019-01-25T06:47:31.816Z,31.97
2019-01-25T06:50:13.077Z,38.97
2019-01-25T06:52:54.585Z,33.10
2019-01-25T06:55:36.076Z,37.70
2019-01-25T06:58:41.816Z,35.17
2019-01-25T07:01:31.269Z,37.77
2019-01-25T07:04:00.666Z,33.83
2019-01-25T07:06:41.924Z,30.57
2019-01-25T07:09:22.943Z,29.90
2019-01-25T07:12:03.657Z,30.13
2019-01-25T07:14:44.593Z,29.97
2019-01-25T07:17:25.551Z,30.90
2019-01-25T07:20:06.898Z,34.00
2019-01-25T07:22:48.319Z,31.73
2019-01-25T07:25:29.645Z,31.33
2019-01-25T07:28:10.505Z,31.00
2019-01-25T07:30:51.497Z,28.97
2019-01-25T07:33:32.258Z,28.80
2019-01-25T07:36:13.117Z,29.23
2019-01-25T07:38:54.632Z,28.60
2019-01-25T07:41:36.116Z,30.53
2019-01-25T07:47:15.362Z,30.87
2019-01-25T07:49:56.190Z,29.53
2019-01-25T07:52:37.938Z,30.30
2019-01-25T07:55:19.354Z,32.50
2019-01-25T07:57:59.900Z,29.90
2019-01-25T08:00:40.854Z,28.87
2019-01-25T08:03:22.138Z,32.97
2019-01-25T08:05:51.384Z,30.97
2019-01-25T08:08:40.022Z,27.87
2019-01-25T08:11:28.583Z,30.30
2019-01-25T08:14:16.783Z,30.00
2019-01-25T08:17:05.188Z,28.07
2019-01-25T08:19:34.374Z,34.63
2019-01-25T08:22:22.588Z,31.17
2019-01-25T08:25:11.081Z,30.87
2019-01-25T08:27:59.393Z,28.57
2019-01-25T08:30:47.700Z,29.30
2019-01-25T08:33:35.938Z,32.30
2019-01-25T08:36:05.163Z,30.17
2019-01-25T08:38:53.392Z,29.60
2019-01-25T08:41:41.616Z,31.23
2019-01-25T08:44:29.905Z,32.43
2019-01-25T08:47:18.221Z,29.90
2019-01-25T08:53:22.932Z,29.60
2019-01-25T08:56:11.160Z,30.40
2019-01-25T08:58:59.375Z,34.73
2019-01-25T09:01:47.967Z,33.83
2019-01-25T09:04:36.175Z,31.30
2019-01-25T09:07:17.042Z,34.37
2019-01-25T09:09:57.658Z,35.10
2019-01-25T09:12:38.763Z,34.17
2019-01-25T09:15:19.296Z,33.60
2019-01-25T09:17:58.721Z,36.77
2019-01-25T09:20:47.011Z,35.90
2019-01-25T09:23:35.214Z,35.50
2019-01-25T09:26:23.440Z,33.40
2019-01-25T09:29:11.895Z,34.57
2019-01-25T09:32:00.134Z,35.77
2019-01-25T09:34:48.587Z,34.80
2019-01-25T09:37:37.087Z,39.10
2019-01-25T09:43:34.258Z,32.33
2019-01-25T09:46:22.814Z,38.13
2019-01-25T09:49:11.251Z,33.33
2019-01-25T09:51:40.384Z,34.73
2019-01-25T09:54:28.663Z,36.40
2019-01-25T09:57:16.887Z,38.63
2019-01-25T10:00:07.103Z,38.17
2019-01-25T10:02:55.590Z,35.90
2019-01-25T10:05:44.038Z,36.30
2019-01-25T10:08:13.187Z,36.57
2019-01-25T10:11:01.392Z,38.70
2019-01-25T10:13:49.903Z,39.57
2019-01-25T10:16:38.534Z,40.17
2019-01-25T10:19:26.779Z,36.17
2019-01-25T10:22:14.986Z,38.07
2019-01-25T10:25:03.257Z,38.67
2019-01-25T10:27:51.485Z,38.70
2019-01-25T10:30:39.370Z,41.50
2019-01-25T10:33:27.662Z,37.90
2019-01-25T10:36:16.169Z,36.90
2019-01-25T10:39:07.003Z,38.10
2019-01-25T10:41:55.219Z,38.03
2019-01-25T10:44:43.435Z,37.53
2019-01-25T10:47:31.899Z,35.53
2019-01-25T10:50:20.109Z,38.30
2019-01-25T10:53:09.099Z,35.57
2019-01-25T10:55:57.556Z,35.70
2019-01-25T10:58:46.040Z,34.77
2019-01-25T11:01:34.271Z,37.80
2019-01-25T11:04:22.766Z,37.07
2019-01-25T11:07:03.598Z,33.97
2019-01-25T11:09:44.500Z,36.60
2019-01-25T11:12:25.610Z,36.80
2019-01-25T11:15:07.311Z,35.17
2019-01-25T11:17:48.571Z,39.07
2019-01-25T11:20:19.736Z,37.87
2019-01-25T11:23:08.251Z,37.10
2019-01-25T11:25:56.471Z,35.50
2019-01-25T11:28:44.711Z,37.03
2019-01-25T11:31:13.869Z,37.97
2019-01-25T11:34:02.355Z,36.53
2019-01-25T11:36:51.104Z,39.67
2019-01-25T11:39:39.609Z,37.10
2019-01-25T11:42:28.078Z,35.47
2019-01-25T11:45:16.532Z,38.37
2019-01-25T11:48:06.343Z,35.50
2019-01-25T11:50:54.534Z,35.70
2019-01-25T11:53:43.015Z,36.60
2019-01-25T11:56:31.488Z,36.37
2019-01-25T11:59:19.725Z,35.50
2019-01-25T12:02:08.180Z,35.27
2019-01-25T12:04:56.429Z,36.90
2019-01-25T12:07:37.461Z,38.27
2019-01-25T12:10:17.994Z,38.20
2019-01-25T12:12:59.246Z,38.80
2019-01-25T12:15:39.976Z,36.50
2019-01-25T12:18:21.139Z,39.27
2019-01-25T12:21:03.289Z,37.30
2019-01-25T12:23:44.211Z,35.77
2019-01-25T12:26:26.478Z,36.63
2019-01-25T12:29:07.969Z,40.37
2019-01-25T12:31:49.180Z,38.97
2019-01-25T12:34:31.096Z,37.60
2019-01-25T12:37:11.842Z,36.63
2019-01-25T12:39:41.350Z,39.70
2019-01-25T12:42:29.799Z,35.50
2019-01-25T12:45:19.948Z,38.37
2019-01-25T12:48:00.924Z,40.40
2019-01-25T12:50:42.536Z,41.33
2019-01-25T12:53:24.283Z,40.17
2019-01-25T12:56:05.447Z,36.13
2019-01-25T12:58:46.731Z,39.40
2019-01-25T13:01:29.528Z,38.63
2019-01-25T13:04:10.897Z,39.47
2019-01-25T13:06:52.204Z,37.60
2019-01-25T13:09:33.179Z,39.47
2019-01-25T13:12:14.448Z,37.30
2019-01-25T13:14:56.369Z,38.20
2019-01-25T13:17:37.435Z,37.40
2019-01-25T13:20:09.841Z,36.80
2019-01-25T13:22:58.120Z,34.57
2019-01-25T13:25:47.305Z,36.17
2019-01-25T13:28:17.467Z,37.30
2019-01-25T13:31:05.739Z,35.23
2019-01-25T13:33:54.266Z,39.70
2019-01-25T13:36:42.915Z,36.23
2019-01-25T13:39:31.166Z,32.37
2019-01-25T13:42:19.445Z,36.27
2019-01-25T13:45:08.480Z,37.30
2019-01-25T13:47:49.983Z,35.30
2019-01-25T13:50:30.876Z,36.30
2019-01-25T13:53:12.415Z,33.70
2019-01-25T13:55:53.159Z,35.70
2019-01-25T13:58:33.772Z,36.37
2019-01-25T14:01:15.194Z,36.93
2019-01-25T14:03:56.618Z,38.80
2019-01-25T14:06:37.227Z,34.47
2019-01-25T14:09:17.819Z,35.63
2019-01-25T14:11:58.207Z,36.83
2019-01-25T14:14:39.318Z,36.73
2019-01-25T14:17:20.140Z,36.73
2019-01-25T14:20:01.229Z,33.20
2019-01-25T14:22:41.946Z,35.10
2019-01-25T14:25:23.024Z,33.10
2019-01-25T14:28:04.068Z,33.00
2019-01-25T14:30:45.691Z,33.53
2019-01-25T14:33:26.571Z,32.57
2019-01-25T14:36:07.376Z,31.60
2019-01-25T14:38:48.094Z,33.67
2019-01-25T14:41:17.284Z,31.33
2019-01-25T14:44:05.791Z,29.70
2019-01-25T14:46:46.492Z,30.63
2019-01-25T14:49:27.360Z,31.80
2019-01-25T14:52:07.822Z,32.60
2019-01-25T14:54:48.615Z,30.17
2019-01-25T14:57:29.847Z,27.77
2019-01-25T15:00:11.479Z,28.87
2019-01-25T15:02:52.587Z,28.33
2019-01-25T15:05:33.404Z,29.80
2019-01-25T15:08:14.104Z,30.77
2019-01-25T15:10:54.857Z,27.80
2019-01-25T15:13:35.886Z,27.70
2019-01-25T15:16:17.403Z,28.20
2019-01-25T15:18:58.098Z,27.90
2019-01-25T15:21:38.560Z,27.80
2019-01-25T15:24:19.404Z,27.13
2019-01-25T15:27:00.622Z,27.80
2019-01-25T15:29:41.127Z,25.53
2019-01-25T15:32:22.047Z,25.17
2019-01-25T15:35:03.755Z,23.23
2019-01-25T15:37:44.855Z,24.77
2019-01-25T15:40:25.596Z,25.53
2019-01-25T15:43:06.670Z,25.37
2019-01-25T15:45:47.395Z,24.87
2019-01-25T15:48:28.532Z,22.53
2019-01-25T15:51:09.978Z,22.87
2019-01-25T15:53:50.689Z,23.67
2019-01-25T15:56:31.114Z,25.90
2019-01-25T15:59:12.088Z,24.40
2019-01-25T16:01:53.422Z,22.03
2019-01-25T16:04:35.515Z,20.70
2019-01-25T16:07:16.640Z,21.43
2019-01-25T16:09:57.347Z,20.40
2019-01-25T16:12:26.516Z,21.83
2019-01-25T16:15:15.931Z,20.07
2019-01-25T16:18:04.487Z,19.70
2019-01-25T16:20:52.733Z,19.40
2019-01-25T16:23:40.929Z,19.67
2019-01-25T16:26:29.193Z,17.77
2019-01-25T16:29:17.637Z,18.80
2019-01-25T16:31:48.078Z,18.10
2019-01-25T16:34:36.416Z,17.93
2019-01-25T16:37:05.558Z,17.20
2019-01-25T16:39:54.071Z,16.60
2019-01-25T16:42:23.502Z,18.03
2019-01-25T16:45:14.242Z,17.77
2019-01-25T16:47:55.132Z,17.57
2019-01-25T16:50:36.502Z,16.37
2019-01-25T16:53:16.971Z,18.20
2019-01-25T16:55:59.233Z,16.97
2019-01-25T16:58:39.805Z,17.80
2019-01-25T17:01:20.823Z,17.50
2019-01-25T17:04:02.111Z,17.77
2019-01-25T17:06:43.375Z,17.77
2019-01-25T17:09:23.876Z,17.83
2019-01-25T17:12:05.231Z,21.53
2019-01-25T17:14:45.877Z,20.40
2019-01-25T17:17:27.239Z,18.43
2019-01-25T17:20:07.846Z,19.60
2019-01-25T17:25:27.769Z,18.70
2019-01-25T17:28:09.195Z,18.80
2019-01-25T17:30:50.391Z,17.50
2019-01-25T17:33:31.185Z,17.50
2019-01-25T17:36:12.226Z,17.33
2019-01-25T17:38:53.376Z,18.07
2019-01-25T17:41:34.735Z,18.30
2019-01-25T17:44:15.432Z,18.90
2019-01-25T17:46:56.283Z,18.43
2019-01-25T17:49:25.426Z,18.80
2019-01-25T17:52:13.940Z,18.70
2019-01-25T17:55:02.186Z,17.03
2019-01-25T17:57:50.441Z,19.27
2019-01-25T18:00:57.739Z,19.50
2019-01-25T18:03:46.050Z,20.37
2019-01-25T18:06:34.300Z,21.07
2019-01-25T18:09:22.498Z,20.10
2019-01-25T18:12:10.832Z,22.03
2019-01-25T18:14:59.295Z,22.60
2019-01-25T18:17:47.645Z,23.67
2019-01-25T18:20:37.368Z,22.03
2019-01-25T18:23:25.895Z,26.23
2019-01-25T18:26:16.014Z,23.80
2019-01-25T18:29:09.031Z,24.77
2019-01-25T18:31:57.539Z,25.80
2019-01-25T18:34:45.735Z,25.60
2019-01-25T18:37:34.234Z,24.47
2019-01-25T18:40:22.430Z,23.87
2019-01-25T18:43:10.943Z,21.87
2019-01-25T18:45:59.443Z,24.50
2019-01-25T18:48:40.256Z,25.63
2019-01-25T18:51:21.943Z,24.77
2019-01-25T18:54:02.788Z,24.00
2019-01-25T18:56:43.716Z,22.50
2019-01-25T18:59:25.189Z,22.47
2019-01-25T19:02:06.119Z,23.80
2019-01-25T19:04:47.419Z,24.80
2019-01-25T19:07:28.361Z,21.07
2019-01-25T19:09:57.530Z,23.57
2019-01-25T19:12:46.034Z,21.63
2019-01-25T19:15:34.499Z,24.53
2019-01-25T19:18:23.027Z,25.73
2019-01-25T19:21:11.609Z,24.23
2019-01-25T19:24:00.145Z,22.20
2019-01-25T19:26:48.674Z,25.20
2019-01-25T19:29:17.767Z,25.13
2019-01-25T19:31:47.018Z,25.07
2019-01-25T19:34:35.255Z,24.90
2019-01-25T19:37:23.866Z,24.43
2019-01-25T19:40:12.967Z,25.93
2019-01-25T19:43:01.489Z,24.67
2019-01-25T19:45:49.731Z,23.70
2019-01-25T19:48:30.350Z,25.93
2019-01-25T19:51:11.071Z,23.40
2019-01-25T19:53:51.968Z,25.07
2019-01-25T19:56:33.645Z,25.50
2019-01-25T19:59:14.867Z,27.60
2019-01-25T20:01:55.530Z,26.03
2019-01-25T20:04:36.151Z,23.70
2019-01-25T20:07:17.776Z,26.30
2019-01-25T20:09:58.828Z,28.83
2019-01-25T20:12:39.360Z,27.30
2019-01-25T20:15:19.981Z,25.73
2019-01-25T20:18:01.330Z,27.27
2019-01-25T20:20:43.087Z,25.73
2019-01-25T20:23:24.062Z,28.10
2019-01-25T20:26:05.179Z,27.20
2019-01-25T20:28:46.327Z,27.83
2019-01-25T20:31:15.828Z,25.80
2019-01-25T20:34:04.397Z,25.77
2019-01-25T20:36:52.761Z,27.53
2019-01-25T20:39:41.068Z,28.40
2019-01-25T20:42:29.452Z,24.03
2019-01-25T20:45:19.035Z,25.93
2019-01-25T20:47:59.601Z,25.37
2019-01-25T20:50:41.612Z,27.90
2019-01-25T20:53:22.670Z,28.77
2019-01-25T20:56:03.032Z,26.90
2019-01-25T20:58:43.843Z,26.90
2019-01-25T21:01:24.603Z,27.93
2019-01-25T21:04:05.633Z,27.10
2019-01-25T21:06:46.251Z,28.73
2019-01-25T21:09:28.056Z,26.23
2019-01-25T21:12:09.188Z,26.77
2019-01-25T21:14:50.119Z,26.70
2019-01-25T21:17:31.658Z,29.50
2019-01-25T21:20:13.136Z,27.90
2019-01-25T21:22:54.176Z,28.70
2019-01-25T21:25:35.311Z,29.90
2019-01-25T21:28:17.410Z,27.87
2019-01-25T21:30:58.333Z,28.50
2019-01-25T21:33:38.878Z,30.40
2019-01-25T21:36:20.235Z,28.00
2019-01-25T21:39:01.580Z,29.63
2019-01-25T21:41:42.793Z,28.70
2019-01-25T21:44:24.112Z,27.37
2019-01-25T21:47:05.227Z,30.50
2019-01-25T21:49:46.462Z,27.97
2019-01-25T21:52:27.824Z,29.63
2019-01-25T21:54:57.287Z,28.90
2019-01-25T21:57:45.657Z,28.57
2019-01-25T22:00:34.230Z,31.07
2019-01-25T22:03:22.864Z,31.70
2019-01-25T22:06:11.108Z,28.57
2019-01-25T22:08:59.366Z,28.80
2019-01-25T22:11:47.644Z,27.97
2019-01-25T22:14:35.900Z,30.97
2019-01-25T22:17:24.210Z,28.80
2019-01-25T22:20:14.490Z,28.23
2019-01-25T22:23:02.730Z,27.17
2019-01-25T22:25:51.190Z,28.60
2019-01-25T22:28:39.416Z,28.43
2019-01-25T22:31:20.609Z,28.80
2019-01-25T22:34:01.361Z,27.00
2019-01-25T22:36:42.582Z,30.63
2019-01-25T22:39:24.203Z,26.67
2019-01-25T22:42:05.755Z,26.63
2019-01-25T22:44:34.908Z,24.53
2019-01-25T22:47:23.112Z,29.60
2019-01-25T22:50:30.492Z,25.43
2019-01-25T22:53:18.976Z,25.50
2019-01-25T22:56:07.456Z,26.07
2019-01-25T22:58:55.951Z,26.07
2019-01-25T23:01:44.330Z,26.40
2019-01-25T23:04:35.561Z,27.57
2019-01-25T23:07:42.949Z,25.80
2019-01-25T23:10:14.202Z,26.80
2019-01-25T23:13:02.411Z,27.57
2019-01-25T23:15:50.629Z,26.10
2019-01-25T23:18:38.865Z,24.57
2019-01-25T23:21:08.267Z,23.70
2019-01-25T23:23:56.583Z,25.20
2019-01-25T23:26:45.048Z,24.40
2019-01-25T23:29:33.519Z,26.57
2019-01-25T23:32:14.422Z,27.07
2019-01-25T23:34:55.777Z,23.67
2019-01-25T23:37:25.157Z,25.50
2019-01-25T23:40:14.170Z,25.07
2019-01-25T23:43:02.630Z,23.57
2019-01-25T23:45:31.795Z,24.53
2019-01-25T23:48:20.035Z,25.43
2019-01-25T23:51:08.311Z,23.67
2019-01-25T23:53:56.875Z,24.40
2019-01-25T23:56:45.330Z,23.20
2019-01-25T23:59:33.555Z,25.07
